createdAt,value
2022-12-03T00:00:23.151Z,101418.00
2022-12-03T00:02:49.935Z,101411.06
2022-12-03T00:05:16.657Z,101419.28
2022-12-03T00:07:43.354Z,101415.72
2022-12-03T00:10:10.684Z,101418.34
2022-12-03T00:12:37.453Z,101417.28
2022-12-03T00:15:05.768Z,101424.34
2022-12-03T00:17:32.454Z,101418.75
2022-12-03T00:19:59.020Z,101418.44
2022-12-03T00:22:25.645Z,101418.63
2022-12-03T00:24:52.476Z,101424.09
2022-12-03T00:27:19.266Z,101420.72
2022-12-03T00:29:45.864Z,101415.56
2022-12-03T00:32:13.971Z,101418.41
2022-12-03T00:34:40.578Z,101410.41
2022-12-03T00:37:07.184Z,101408.81
2022-12-03T00:39:36.534Z,101411.03
2022-12-03T00:42:03.211Z,101411.13
2022-12-03T00:44:29.796Z,101411.13
2022-12-03T00:46:56.434Z,101410.19
2022-12-03T00:49:23.069Z,101405.78
2022-12-03T00:51:49.687Z,101416.09
2022-12-03T00:54:16.277Z,101411.25
2022-12-03T00:56:42.869Z,101406.09
2022-12-03T00:59:09.589Z,101405.03
2022-12-03T01:01:36.234Z,101406.19
2022-12-03T01:04:02.863Z,101406.31
2022-12-03T01:06:29.569Z,101406.09
2022-12-03T01:08:58.594Z,101397.22
2022-12-03T01:11:37.333Z,101407.03
2022-12-03T01:14:15.349Z,101404.19
2022-12-03T01:16:42.224Z,101401.25
2022-12-03T01:19:10.616Z,101410.59
2022-12-03T01:21:37.954Z,101409.88
2022-12-03T01:24:05.064Z,101412.28
2022-12-03T01:26:32.775Z,101407.34
2022-12-03T01:28:59.358Z,101412.63
2022-12-03T01:31:44.619Z,101411.75
2022-12-03T01:34:11.406Z,101407.34
2022-12-03T01:36:37.999Z,101408.19
2022-12-03T01:39:04.968Z,101409.13
2022-12-03T01:41:32.225Z,101403.03
2022-12-03T01:43:59.092Z,101400.81
2022-12-03T01:46:31.472Z,101396.91
2022-12-03T01:48:58.142Z,101399.47
2022-12-03T01:51:24.739Z,101399.66
2022-12-03T01:53:51.377Z,101398.72
2022-12-03T01:56:18.836Z,101401.75
2022-12-03T01:58:46.191Z,101394.69
2022-12-03T02:01:15.967Z,101394.81
2022-12-03T02:03:43.759Z,101408.47
2022-12-03T02:06:18.925Z,101403.94
2022-12-03T02:08:46.669Z,101402.16
2022-12-03T02:11:20.850Z,101400.47
2022-12-03T02:13:49.162Z,101402.47
2022-12-03T02:16:15.873Z,101401.06
2022-12-03T02:18:43.054Z,101394.69
2022-12-03T02:21:15.698Z,101393.53
2022-12-03T02:23:54.911Z,101397.00
2022-12-03T02:26:21.747Z,101396.47
2022-12-03T02:28:48.347Z,101394.28
2022-12-03T02:31:17.287Z,101398.13
2022-12-03T02:33:44.040Z,101390.34
2022-12-03T02:36:11.182Z,101394.84
2022-12-03T02:38:37.967Z,101392.34
2022-12-03T02:41:07.962Z,101386.88
2022-12-03T02:43:34.599Z,101393.81
2022-12-03T02:46:01.950Z,101392.06
2022-12-03T02:48:30.173Z,101396.66
2022-12-03T02:51:03.166Z,101388.22
2022-12-03T02:53:33.653Z,101387.06
2022-12-03T02:56:01.967Z,101384.66
2022-12-03T02:58:29.977Z,101374.97
2022-12-03T03:00:56.687Z,101378.75
2022-12-03T03:03:25.140Z,101381.91
2022-12-03T03:05:52.596Z,101377.72
2022-12-03T03:08:19.513Z,101381.91
2022-12-03T03:10:47.591Z,101378.25
2022-12-03T03:13:15.786Z,101382.22
2022-12-03T03:15:42.734Z,101374.34
2022-12-03T03:18:10.704Z,101380.13
2022-12-03T03:20:37.770Z,101375.50
2022-12-03T03:23:22.092Z,101372.72
2022-12-03T03:25:54.004Z,101376.56
2022-12-03T03:28:21.876Z,101380.63
2022-12-03T03:30:48.708Z,101377.16
2022-12-03T03:33:15.801Z,101381.38
2022-12-03T03:35:43.939Z,101375.28
2022-12-03T03:38:11.380Z,101375.16
2022-12-03T03:40:39.257Z,101377.91
2022-12-03T03:43:06.218Z,101372.72
2022-12-03T03:45:33.133Z,101370.84
2022-12-03T03:48:00.622Z,101370.09
2022-12-03T03:50:33.260Z,101366.53
2022-12-03T03:53:01.538Z,101378.19
2022-12-03T03:55:28.440Z,101363.16
2022-12-03T03:57:55.115Z,101366.72
2022-12-03T04:00:24.266Z,101375.56
2022-12-03T04:02:57.068Z,101383.06
2022-12-03T04:05:24.495Z,101378.41
2022-12-03T04:07:53.899Z,101379.13
2022-12-03T04:10:42.360Z,101376.72
2022-12-03T04:13:09.009Z,101385.88
2022-12-03T04:15:35.592Z,101384.75
2022-12-03T04:18:20.707Z,101386.00
2022-12-03T04:20:47.376Z,101380.00
2022-12-03T04:23:14.035Z,101383.56
2022-12-03T04:25:59.206Z,101388.38
2022-12-03T04:28:44.751Z,101387.75
2022-12-03T04:31:30.152Z,101393.63
2022-12-03T04:34:15.302Z,101390.19
2022-12-03T04:36:44.285Z,101391.22
2022-12-03T04:39:10.967Z,101392.06
2022-12-03T04:41:37.697Z,101385.22
2022-12-03T04:44:24.700Z,101385.94
2022-12-03T04:46:51.252Z,101389.31
2022-12-03T04:49:20.063Z,101385.22
2022-12-03T04:51:46.708Z,101383.88
2022-12-03T04:54:13.344Z,101391.53
2022-12-03T04:56:39.891Z,101387.84
2022-12-03T04:59:08.982Z,101394.38
2022-12-03T05:01:39.431Z,101390.59
2022-12-03T05:04:06.389Z,101394.69
2022-12-03T05:06:33.024Z,101387.09
2022-12-03T05:08:59.631Z,101384.78
2022-12-03T05:11:26.320Z,101389.53
2022-12-03T05:13:56.145Z,101391.22
2022-12-03T05:16:22.811Z,101384.38
2022-12-03T05:18:49.544Z,101383.84
2022-12-03T05:21:16.213Z,101376.78
2022-12-03T05:23:45.043Z,101377.44
2022-12-03T05:26:14.128Z,101381.22
2022-12-03T05:28:45.193Z,101373.22
2022-12-03T05:31:14.933Z,101376.22
2022-12-03T05:33:49.116Z,101373.59
2022-12-03T05:36:15.794Z,101372.47
2022-12-03T05:38:47.137Z,101363.91
2022-12-03T05:41:35.085Z,101375.09
2022-12-03T05:44:01.664Z,101370.22
2022-12-03T05:46:28.354Z,101364.78
2022-12-03T05:48:54.923Z,101359.50
2022-12-03T05:51:21.479Z,101368.44
2022-12-03T05:53:48.116Z,101365.91
2022-12-03T05:56:14.714Z,101358.22
2022-12-03T05:58:41.360Z,101363.28
2022-12-03T06:01:08.434Z,101369.97
2022-12-03T06:03:35.245Z,101366.72
2022-12-03T06:06:02.030Z,101364.81
2022-12-03T06:08:28.622Z,101363.16
2022-12-03T06:10:55.208Z,101361.88
2022-12-03T06:13:21.832Z,101362.19
2022-12-03T06:15:48.493Z,101359.66
2022-12-03T06:18:15.219Z,101355.13
2022-12-03T06:20:41.764Z,101358.72
2022-12-03T06:23:08.437Z,101356.09
2022-12-03T06:25:35.053Z,101363.53
2022-12-03T06:28:01.660Z,101364.28
2022-12-03T06:30:30.685Z,101362.69
2022-12-03T06:32:57.712Z,101368.25
2022-12-03T06:35:26.729Z,101360.91
2022-12-03T06:38:02.543Z,101361.00
2022-12-03T06:40:29.258Z,101355.66
2022-12-03T06:42:55.944Z,101354.50
2022-12-03T06:45:29.854Z,101352.38
2022-12-03T06:47:56.500Z,101348.59
2022-12-03T06:50:25.999Z,101344.09
2022-12-03T06:53:01.541Z,101349.25
2022-12-03T06:55:28.169Z,101338.47
2022-12-03T06:57:57.287Z,101344.00
2022-12-03T07:00:35.363Z,101338.41
2022-12-03T07:03:02.091Z,101344.41
2022-12-03T07:05:28.804Z,101341.66
2022-12-03T07:08:03.189Z,101332.44
2022-12-03T07:10:29.886Z,101340.72
2022-12-03T07:12:56.413Z,101333.78
2022-12-03T07:15:25.324Z,101334.81
2022-12-03T07:18:00.787Z,101329.84
2022-12-03T07:20:27.507Z,101325.75
2022-12-03T07:22:56.932Z,101323.78
2022-12-03T07:25:26.997Z,101322.81
2022-12-03T07:27:58.988Z,101320.28
2022-12-03T07:30:28.187Z,101321.41
2022-12-03T07:32:56.874Z,101315.50
2022-12-03T07:35:30.928Z,101315.22
2022-12-03T07:37:57.574Z,101317.78
2022-12-03T07:40:26.680Z,101310.16
2022-12-03T07:42:56.303Z,101309.97
2022-12-03T07:45:30.554Z,101315.22
2022-12-03T07:47:57.167Z,101312.41
2022-12-03T07:50:28.305Z,101312.50
2022-12-03T07:52:55.527Z,101304.06
2022-12-03T07:55:25.279Z,101303.44
2022-12-03T07:57:57.259Z,101294.41
2022-12-03T08:00:26.518Z,101302.09
2022-12-03T08:03:00.659Z,101297.69
2022-12-03T08:05:29.476Z,101295.34
2022-12-03T08:07:58.361Z,101292.19
2022-12-03T08:10:26.382Z,101291.03
2022-12-03T08:12:53.837Z,101289.22
2022-12-03T08:15:24.245Z,101288.94
2022-12-03T08:18:00.877Z,101290.19
2022-12-03T08:20:39.287Z,101285.78
2022-12-03T08:23:32.217Z,101287.47
2022-12-03T08:26:02.239Z,101286.53
2022-12-03T08:28:28.963Z,101285.78
2022-12-03T08:31:19.532Z,101281.56
2022-12-03T08:33:54.199Z,101285.84
2022-12-03T08:36:26.798Z,101279.03
2022-12-03T08:38:59.656Z,101276.09
2022-12-03T08:41:46.859Z,101282.94
2022-12-03T08:44:19.587Z,101280.31
2022-12-03T08:46:50.282Z,101273.47
2022-12-03T08:49:17.403Z,101268.72
2022-12-03T08:51:44.320Z,101275.28
2022-12-03T08:54:15.100Z,101271.16
2022-12-03T08:56:41.888Z,101268.22
2022-12-03T08:59:30.948Z,101267.28
2022-12-03T09:01:59.021Z,101267.94
2022-12-03T09:04:37.613Z,101263.63
2022-12-03T09:07:04.673Z,101269.06
2022-12-03T09:09:31.469Z,101266.16
2022-12-03T09:11:58.327Z,101270.09
2022-12-03T09:14:25.023Z,101262.00
2022-12-03T09:16:55.926Z,101262.59
2022-12-03T09:19:24.420Z,101258.91
2022-12-03T09:21:51.216Z,101257.53
2022-12-03T09:24:17.946Z,101253.50
2022-12-03T09:26:44.688Z,101253.56
2022-12-03T09:29:12.636Z,101252.44
2022-12-03T09:31:39.944Z,101241.41
2022-12-03T09:34:07.006Z,101242.50
2022-12-03T09:36:33.800Z,101245.63
2022-12-03T09:39:02.540Z,101232.19
2022-12-03T09:41:29.177Z,101233.31
2022-12-03T09:44:04.939Z,101229.66
2022-12-03T09:46:32.779Z,101229.94
2022-12-03T09:49:00.971Z,101231.25
2022-12-03T09:51:32.014Z,101231.13
2022-12-03T09:54:07.542Z,101233.47
2022-12-03T09:56:37.353Z,101219.59
2022-12-03T09:59:09.423Z,101219.16
2022-12-03T10:01:36.385Z,101217.78
2022-12-03T10:04:03.199Z,101219.59
2022-12-03T10:06:30.606Z,101203.19
2022-12-03T10:08:57.455Z,101205.72
2022-12-03T10:11:25.567Z,101204.53
2022-12-03T10:13:56.605Z,101200.56
2022-12-03T10:16:25.185Z,101189.22
2022-12-03T10:18:54.410Z,101186.06
2022-12-03T10:21:31.517Z,101185.13
2022-12-03T10:24:24.069Z,101184.50
2022-12-03T10:27:20.589Z,101179.22
2022-12-03T10:29:57.978Z,101174.72
2022-12-03T10:32:43.471Z,101179.34
2022-12-03T10:35:12.033Z,101178.63
2022-12-03T10:38:00.330Z,101181.03
2022-12-03T10:40:34.476Z,101168.53
2022-12-03T10:43:19.172Z,101163.25
2022-12-03T10:45:46.651Z,101151.16
2022-12-03T10:48:21.704Z,101148.97
2022-12-03T10:51:04.905Z,101150.75
2022-12-03T10:53:35.778Z,101148.13
2022-12-03T10:56:05.290Z,101146.22
2022-12-03T10:58:35.867Z,101134.75
2022-12-03T11:01:06.840Z,101131.72
2022-12-03T11:03:35.368Z,101131.00
2022-12-03T11:06:02.525Z,101126.56
2022-12-03T11:08:38.359Z,101117.31
2022-12-03T11:11:17.110Z,101113.41
2022-12-03T11:13:49.432Z,101111.66
2022-12-03T11:16:45.311Z,101101.84
2022-12-03T11:19:21.776Z,101106.06
2022-12-03T11:22:03.665Z,101092.81
2022-12-03T11:24:37.930Z,101095.56
2022-12-03T11:27:08.023Z,101090.81
2022-12-03T11:29:49.620Z,101089.78
2022-12-03T11:32:38.116Z,101084.00
2022-12-03T11:35:23.014Z,101073.47
2022-12-03T11:37:54.365Z,101080.84
2022-12-03T11:40:22.118Z,101079.59
2022-12-03T11:42:49.383Z,101081.78
2022-12-03T11:45:28.615Z,101067.91
2022-12-03T11:47:58.405Z,101064.22
2022-12-03T11:50:42.943Z,101058.03
2022-12-03T11:53:25.079Z,101046.16
2022-12-03T11:56:10.750Z,101045.75
2022-12-03T11:58:48.283Z,101035.09
2022-12-03T12:01:38.952Z,101035.66
2022-12-03T12:04:12.543Z,101023.69
2022-12-03T12:06:44.640Z,101018.59
2022-12-03T12:09:14.624Z,101012.19
2022-12-03T12:11:41.931Z,101011.66
2022-12-03T12:14:12.971Z,101010.28
2022-12-03T12:16:57.935Z,101002.00
2022-12-03T12:19:37.475Z,101001.88
2022-12-03T12:22:25.089Z,101001.66
2022-12-03T12:24:53.436Z,100998.81
2022-12-03T12:27:49.300Z,100994.00
2022-12-03T12:30:18.578Z,100994.38
2022-12-03T12:33:00.231Z,100986.50
2022-12-03T12:35:33.087Z,100971.38
2022-12-03T12:38:14.449Z,100974.13
2022-12-03T12:40:52.439Z,100958.66
2022-12-03T12:43:33.215Z,100961.59
2022-12-03T12:46:24.948Z,100949.19
2022-12-03T12:48:55.244Z,100944.88
2022-12-03T12:51:25.955Z,100942.25
2022-12-03T12:53:53.771Z,100952.44
2022-12-03T12:56:33.753Z,100943.91
2022-12-03T12:59:16.508Z,100931.06
2022-12-03T13:01:47.320Z,100929.63
2022-12-03T13:04:23.898Z,100925.66
2022-12-03T13:06:53.400Z,100927.09
2022-12-03T13:09:22.787Z,100915.22
2022-12-03T13:12:00.988Z,100907.13
2022-12-03T13:14:47.997Z,100904.19
2022-12-03T13:17:19.691Z,100903.16
2022-12-03T13:19:50.668Z,100895.16
2022-12-03T13:22:34.406Z,100898.50
2022-12-03T13:25:04.055Z,100890.41
2022-12-03T13:27:31.013Z,100889.56
2022-12-03T13:30:08.947Z,100888.13
2022-12-03T13:32:43.172Z,100884.41
2022-12-03T13:35:09.881Z,100881.91
2022-12-03T13:37:37.290Z,100870.56
2022-12-03T13:40:34.888Z,100868.78
2022-12-03T13:43:11.387Z,100861.84
2022-12-03T13:45:43.953Z,100859.09
2022-12-03T13:48:18.602Z,100850.97
2022-12-03T13:50:46.815Z,100862.28
2022-12-03T13:53:27.411Z,100849.88
2022-12-03T13:56:38.110Z,100849.38
2022-12-03T13:59:06.283Z,100843.88
2022-12-03T14:01:37.762Z,100837.19
2022-12-03T14:04:11.751Z,100839.31
2022-12-03T14:06:40.673Z,100833.19
2022-12-03T14:09:15.808Z,100829.63
2022-12-03T14:12:09.898Z,100827.63
2022-12-03T14:14:40.038Z,100821.00
2022-12-03T14:17:13.961Z,100820.91
2022-12-03T14:19:44.740Z,100818.16
2022-12-03T14:22:20.115Z,100815.97
2022-12-03T14:24:53.276Z,100808.72
2022-12-03T14:27:29.576Z,100812.31
2022-12-03T14:30:13.886Z,100811.22
2022-12-03T14:32:58.655Z,100807.88
2022-12-03T14:35:38.892Z,100807.13
2022-12-03T14:38:20.128Z,100810.28
2022-12-03T14:41:06.256Z,100810.19
2022-12-03T14:43:38.993Z,100803.91
2022-12-03T14:46:18.169Z,100793.22
2022-12-03T14:48:52.598Z,100795.91
2022-12-03T14:51:25.505Z,100788.97
2022-12-03T14:53:55.577Z,100796.53
2022-12-03T14:56:22.526Z,100797.72
2022-12-03T14:58:55.328Z,100796.84
2022-12-03T15:01:22.300Z,100799.25
2022-12-03T15:03:49.360Z,100802.53
2022-12-03T15:06:16.092Z,100798.84
2022-12-03T15:08:48.111Z,100785.41
2022-12-03T15:11:18.001Z,100793.56
2022-12-03T15:14:02.518Z,100800.22
2022-12-03T15:16:29.523Z,100798.84
2022-12-03T15:18:56.735Z,100794.97
2022-12-03T15:21:24.001Z,100794.84
2022-12-03T15:23:50.653Z,100795.41
2022-12-03T15:26:17.378Z,100792.47
2022-12-03T15:28:48.113Z,100789.03
2022-12-03T15:31:18.337Z,100789.69
2022-12-03T15:33:45.271Z,100788.03
2022-12-03T15:36:14.658Z,100787.47
2022-12-03T15:38:44.391Z,100795.81
2022-12-03T15:41:24.689Z,100782.44
2022-12-03T15:44:05.084Z,100793.91
2022-12-03T15:46:39.188Z,100781.78
2022-12-03T15:49:08.434Z,100788.78
2022-12-03T15:51:35.406Z,100784.84
2022-12-03T15:54:02.199Z,100786.97
2022-12-03T15:56:28.756Z,100784.94
2022-12-03T15:59:00.343Z,100781.59
2022-12-03T16:01:26.977Z,100782.31
2022-12-03T16:03:53.635Z,100784.94
2022-12-03T16:06:20.304Z,100784.56
2022-12-03T16:08:48.128Z,100782.69
2022-12-03T16:11:18.075Z,100789.69
2022-12-03T16:13:47.063Z,100786.03
2022-12-03T16:16:13.805Z,100779.59
2022-12-03T16:18:48.155Z,100782.22
2022-12-03T16:21:14.829Z,100792.09
2022-12-03T16:23:46.775Z,100786.13
2022-12-03T16:26:16.498Z,100784.00
2022-12-03T16:28:46.763Z,100783.19
2022-12-03T16:31:16.270Z,100775.75
2022-12-03T16:33:47.699Z,100779.81
2022-12-03T16:36:19.001Z,100779.41
2022-12-03T16:38:45.784Z,100781.94
2022-12-03T16:41:26.564Z,100778.56
2022-12-03T16:43:53.171Z,100777.84
2022-12-03T16:46:26.160Z,100777.28
2022-12-03T16:48:55.491Z,100780.16
2022-12-03T16:51:28.025Z,100781.31
2022-12-03T16:53:55.045Z,100775.84
2022-12-03T16:56:21.596Z,100770.91
2022-12-03T16:58:48.260Z,100770.81
2022-12-03T17:01:16.311Z,100777.41
2022-12-03T17:03:42.965Z,100774.06
2022-12-03T17:06:09.658Z,100784.66
2022-12-03T17:08:49.653Z,100783.22
2022-12-03T17:11:17.074Z,100795.09
2022-12-03T17:13:44.673Z,100797.09
2022-12-03T17:16:11.343Z,100802.09
2022-12-03T17:18:37.940Z,100801.28
2022-12-03T17:21:04.659Z,100812.72
2022-12-03T17:23:31.284Z,100809.38
2022-12-03T17:25:57.843Z,100812.72
2022-12-03T17:28:26.750Z,100815.47
2022-12-03T17:30:56.545Z,100819.31
2022-12-03T17:33:25.058Z,100817.16
2022-12-03T17:35:51.723Z,100813.66
2022-12-03T17:38:18.302Z,100818.72
2022-12-03T17:40:47.244Z,100827.56
2022-12-03T17:43:13.840Z,100821.78
2022-12-03T17:45:40.624Z,100822.63
2022-12-03T17:48:08.180Z,100821.56
2022-12-03T17:50:35.388Z,100820.81
2022-12-03T17:53:04.128Z,100822.94
2022-12-03T17:55:38.334Z,100813.56
2022-12-03T17:58:09.323Z,100816.81
2022-12-03T18:00:35.944Z,100819.16
2022-12-03T18:03:02.609Z,100817.38
2022-12-03T18:05:29.183Z,100820.09
2022-12-03T18:07:55.798Z,100821.34
2022-12-03T18:10:22.726Z,100818.91
2022-12-03T18:13:01.498Z,100826.19
2022-12-03T18:15:28.817Z,100829.06
2022-12-03T18:17:55.386Z,100829.34
2022-12-03T18:20:29.048Z,100830.28
2022-12-03T18:22:55.890Z,100830.72
2022-12-03T18:25:22.477Z,100833.88
2022-12-03T18:27:49.194Z,100829.06
2022-12-03T18:30:15.838Z,100824.75
2022-12-03T18:32:44.810Z,100828.19
2022-12-03T18:35:11.479Z,100833.00
2022-12-03T18:37:38.178Z,100839.44
2022-12-03T18:40:12.803Z,100833.13
2022-12-03T18:42:39.951Z,100824.19
2022-12-03T18:45:06.973Z,100823.34
2022-12-03T18:47:33.682Z,100828.09
2022-12-03T18:50:00.619Z,100826.94
2022-12-03T18:52:27.454Z,100830.69
2022-12-03T18:54:57.651Z,100830.28
2022-12-03T18:57:24.214Z,100827.97
2022-12-03T18:59:50.816Z,100830.38
2022-12-03T19:05:08.145Z,100832.91
2022-12-03T19:07:34.927Z,100827.03
2022-12-03T19:10:01.589Z,100823.56
2022-12-03T19:12:28.182Z,100824.81
2022-12-03T19:14:54.851Z,100829.25
2022-12-03T19:17:21.703Z,100838.66
2022-12-03T19:19:48.436Z,100833.63
2022-12-03T19:22:15.084Z,100841.00
2022-12-03T19:24:41.708Z,100839.13
2022-12-03T19:27:08.330Z,100839.75
2022-12-03T19:29:35.232Z,100841.34
2022-12-03T19:32:02.000Z,100840.84
2022-12-03T19:34:35.967Z,100851.50
2022-12-03T19:37:08.740Z,100846.56
2022-12-03T19:39:43.184Z,100838.06
2022-12-03T19:42:10.099Z,100845.19
2022-12-03T19:44:36.806Z,100849.19
2022-12-03T19:47:13.119Z,100849.31
2022-12-03T19:49:39.839Z,100845.09
2022-12-03T19:52:06.479Z,100837.94
2022-12-03T19:54:36.713Z,100847.06
2022-12-03T19:57:19.707Z,100843.72
2022-12-03T19:59:52.638Z,100846.00
2022-12-03T20:02:19.653Z,100848.88
2022-12-03T20:04:46.344Z,100850.53
2022-12-03T20:07:12.948Z,100844.78
2022-12-03T20:09:39.598Z,100842.44
2022-12-03T20:12:07.824Z,100838.56
2022-12-03T20:14:34.392Z,100841.34
2022-12-03T20:17:01.154Z,100841.19
2022-12-03T20:19:27.870Z,100834.88
2022-12-03T20:21:59.046Z,100833.53
2022-12-03T20:24:28.897Z,100839.19
2022-12-03T20:26:55.511Z,100839.19
2022-12-03T20:29:22.242Z,100837.84
2022-12-03T20:31:48.896Z,100838.34
2022-12-03T20:34:15.646Z,100842.03
2022-12-03T20:36:44.164Z,100837.94
2022-12-03T20:39:10.763Z,100838.56
2022-12-03T20:41:37.899Z,100845.38
2022-12-03T20:44:07.461Z,100834.16
2022-12-03T20:46:34.425Z,100836.97
2022-12-03T20:49:01.279Z,100846.97
2022-12-03T20:51:29.924Z,100838.50
2022-12-03T20:53:57.156Z,100840.84
2022-12-03T20:56:26.324Z,100844.34
2022-12-03T20:58:53.726Z,100841.72
2022-12-03T21:01:25.121Z,100834.03
2022-12-03T21:03:52.758Z,100832.25
2022-12-03T21:06:20.792Z,100838.34
2022-12-03T21:08:47.979Z,100837.84
2022-12-03T21:11:19.162Z,100834.50
2022-12-03T21:13:46.507Z,100834.16
2022-12-03T21:16:16.092Z,100833.19
2022-12-03T21:18:43.110Z,100831.28
2022-12-03T21:21:14.902Z,100836.09
2022-12-03T21:23:41.915Z,100836.78
2022-12-03T21:26:11.337Z,100836.78
2022-12-03T21:28:39.637Z,100829.00
2022-12-03T21:31:08.644Z,100839.41
2022-12-03T21:33:35.619Z,100838.44
2022-12-03T21:36:02.726Z,100837.13
2022-12-03T21:38:29.988Z,100838.91
2022-12-03T21:40:57.001Z,100842.03
2022-12-03T21:43:24.099Z,100848.22
2022-12-03T21:45:51.428Z,100849.25
2022-12-03T21:48:18.190Z,100852.00
2022-12-03T21:50:45.381Z,100844.44
2022-12-03T21:53:12.492Z,100852.31
2022-12-03T21:55:43.060Z,100856.41
2022-12-03T21:58:09.723Z,100858.31
2022-12-03T22:00:36.608Z,100857.69
2022-12-03T22:03:03.363Z,100856.63
2022-12-03T22:05:30.141Z,100861.06
2022-12-03T22:07:58.273Z,100865.00
2022-12-03T22:10:26.975Z,100858.94
2022-12-03T22:12:53.580Z,100860.84
2022-12-03T22:15:20.152Z,100860.59
2022-12-03T22:17:47.455Z,100863.00
2022-12-03T22:20:14.176Z,100870.91
2022-12-03T22:22:40.830Z,100861.22
2022-12-03T22:25:08.042Z,100859.44
2022-12-03T22:27:34.714Z,100853.31
2022-12-03T22:30:01.682Z,100849.97
2022-12-03T22:32:28.348Z,100851.44
2022-12-03T22:34:55.011Z,100857.53
2022-12-03T22:37:21.684Z,100851.94
2022-12-03T22:39:48.313Z,100844.25
2022-12-03T22:42:14.988Z,100848.56
2022-12-03T22:44:41.589Z,100842.03
2022-12-03T22:47:08.203Z,100842.50
2022-12-03T22:49:34.931Z,100839.13
2022-12-03T22:52:01.607Z,100829.34
2022-12-03T22:54:28.234Z,100833.75
2022-12-03T22:56:54.832Z,100836.16
2022-12-03T22:59:21.562Z,100830.81
2022-12-03T23:01:48.100Z,100827.53
2022-12-03T23:04:14.766Z,100838.34
2022-12-03T23:06:41.861Z,100827.50
2022-12-03T23:09:08.506Z,100829.94
2022-12-03T23:11:35.647Z,100829.94
2022-12-03T23:14:02.539Z,100818.47
2022-12-03T23:16:31.190Z,100823.50
2022-12-03T23:18:59.537Z,100823.00
2022-12-03T23:21:30.504Z,100830.81
2022-12-03T23:23:59.088Z,100825.63
2022-12-03T23:26:26.227Z,100818.84
2022-12-03T23:28:53.048Z,100817.16
2022-12-03T23:31:24.903Z,100822.50
2022-12-03T23:33:52.846Z,100818.66
2022-12-03T23:36:20.226Z,100822.00
2022-12-03T23:38:47.061Z,100816.44
2022-12-03T23:41:16.316Z,100814.63
2022-12-03T23:43:43.220Z,100819.66
2022-12-03T23:46:15.496Z,100817.47
2022-12-03T23:48:42.659Z,100825.38
2022-12-03T23:51:14.535Z,100831.25
2022-12-03T23:53:41.466Z,100828.63
2022-12-03T23:56:10.475Z,100825.81
2022-12-03T23:58:38.643Z,100821.28
